Terminal Aerodrome Forecast
Issued by NWS

Home | Current Version | Previous Version | Text Only | Print | Product List | Glossary On
Versions: 1 2 3 4 5 6 7 8 9 10 11 12 13
763
FTUS42 TJSJ 232127 AAA
TAFKPK
TAF AMD
TKPK 232127Z 2321/2418 08005KT P6SM -SHRA SCT021 SCT040
     FM240100 06008KT P6SM FEW019
     FM241300 07015KT P6SM VCSH SCT022=

USA.gov is the U.S. government's official web portal to all federal, state and local government web resources and services.